Time;durP1;ratioP1;P1;durP2;ratioP2;P2;SDS_P1;SDS_P2;PMS_P1;PMS_P2;Temp;Humidity;BMP_temperature;BMP_pressure;BME280_temperature;BME280_humidity;BME280_pressure;Samples;Min_cycle;Max_cycle;Signal;HPM_P1;HPM_P2
2024/02/20 00:00:44;;;;;;;12.85;6.68;;;;;;;6.93;97.66;99461.47;5008094;28;20033;-87
2024/02/20 00:03:09;;;;;;;9.75;6.82;;;;;;;6.98;98.14;99481.06;5041521;28;20096;-87
2024/02/20 00:05:35;;;;;;;12.05;5.40;;;;;;;7.07;98.17;99469.19;5023169;28;20061;-84
2024/02/20 00:08:03;;;;;;;9.60;5.70;;;;;;;6.94;97.71;99452.50;5001252;28;20029;-86
2024/02/20 00:10:32;;;;;;;11.75;6.15;;;;;;;7.02;98.41;99476.97;5011756;28;20033;-86
2024/02/20 00:12:57;;;;;;;8.63;5.80;;;;;;;7.03;98.05;99468.00;5032107;28;20505;-87
2024/02/20 00:15:23;;;;;;;11.50;6.15;;;;;;;6.82;97.82;99444.38;5032727;28;20040;-86
2024/02/20 00:17:49;;;;;;;11.65;5.78;;;;;;;6.69;97.49;99450.53;5014109;28;20040;-86
2024/02/20 00:20:15;;;;;;;12.77;6.30;;;;;;;6.54;97.96;99404.91;5025346;28;20025;-86
2024/02/20 00:22:40;;;;;;;8.02;5.47;;;;;;;6.53;98.34;99429.78;5032175;28;20033;-86
2024/02/20 00:25:07;;;;;;;12.73;6.22;;;;;;;6.81;97.85;99493.16;5016292;28;20037;-86
2024/02/20 00:27:33;;;;;;;9.30;5.43;;;;;;;6.65;97.70;99502.38;5031045;28;20433;-87
2024/02/20 00:29:58;;;;;;;8.73;5.32;;;;;;;6.62;98.19;99454.22;5016017;28;20542;-86
2024/02/20 00:32:24;;;;;;;9.13;5.78;;;;;;;6.32;97.90;99416.78;5027234;28;20025;-86
2024/02/20 00:34:50;;;;;;;8.00;5.30;;;;;;;6.72;97.29;99462.59;4993524;28;20049;-86
2024/02/20 00:37:16;;;;;;;9.13;5.80;;;;;;;6.74;97.49;99469.31;5026784;28;20033;-87
2024/02/20 00:39:42;;;;;;;10.25;5.00;;;;;;;6.81;97.20;99475.38;5016612;28;20032;-87
2024/02/20 00:42:08;;;;;;;14.00;5.15;;;;;;;6.79;97.23;99496.00;5019067;28;20116;-86
2024/02/20 00:44:34;;;;;;;9.07;5.53;;;;;;;6.88;96.00;99472.72;5014088;28;20041;-86
2024/02/20 00:47:00;;;;;;;8.50;5.45;;;;;;;6.87;96.32;99497.63;5028316;28;20030;-87
2024/02/20 00:49:25;;;;;;;9.60;5.82;;;;;;;6.45;96.59;99442.44;5030337;28;20032;-86
2024/02/20 00:51:51;;;;;;;7.40;5.50;;;;;;;6.73;96.89;99501.34;5011461;28;20041;-86
2024/02/20 00:54:17;;;;;;;10.68;5.82;;;;;;;6.51;97.42;99436.34;5027394;28;20037;-86
2024/02/20 00:56:44;;;;;;;9.63;5.75;;;;;;;6.69;97.46;99476.25;5011812;28;20114;-86
2024/02/20 00:59:10;;;;;;;8.82;5.22;;;;;;;6.89;96.64;99503.56;5012386;28;20032;-85
2024/02/20 01:01:36;;;;;;;9.05;4.78;;;;;;;6.87;97.09;99499.47;5027720;28;20120;-86
2024/02/20 01:04:02;;;;;;;9.50;5.97;;;;;;;6.81;96.21;99493.16;5012131;28;20028;-87
2024/02/20 01:06:27;;;;;;;8.52;5.22;;;;;;;6.25;96.66;99415.16;5008957;28;20030;-87
2024/02/20 01:08:53;;;;;;;12.95;5.68;;;;;;;6.63;96.54;99469.94;5010603;28;21517;-87
2024/02/20 01:11:18;;;;;;;7.95;5.22;;;;;;;6.80;95.86;99481.75;5014060;28;20044;-87
2024/02/20 01:13:43;;;;;;;6.85;4.78;;;;;;;6.72;96.53;99481.16;5032204;28;20030;-87
2024/02/20 01:16:09;;;;;;;10.05;4.65;;;;;;;6.94;96.01;99511.72;5018491;28;20499;-83
2024/02/20 01:18:34;;;;;;;8.13;4.78;;;;;;;6.72;96.38;99483.81;5020837;28;20041;-82
2024/02/20 01:21:01;;;;;;;8.35;4.72;;;;;;;6.88;96.43;99520.47;5007839;28;20029;-83
2024/02/20 01:23:26;;;;;;;9.05;4.45;;;;;;;6.79;95.54;99509.28;5025556;28;20037;-83
2024/02/20 01:25:52;;;;;;;8.38;4.63;;;;;;;6.88;95.02;99515.16;5024428;28;20025;-83
2024/02/20 01:28:17;;;;;;;12.20;3.33;;;;;;;6.56;95.89;99492.19;5020155;28;20033;-83
2024/02/20 01:30:44;;;;;;;7.43;4.38;;;;;;;6.88;96.27;99527.66;5006437;28;20072;-83
2024/02/20 01:33:09;;;;;;;9.93;4.55;;;;;;;6.64;96.35;99492.00;5026106;28;20034;-84
2024/02/20 01:35:35;;;;;;;13.02;4.60;;;;;;;6.80;96.21;99524.19;5028353;28;20114;-86
2024/02/20 01:38:00;;;;;;;10.57;4.10;;;;;;;6.74;96.73;99521.53;5009169;28;20030;-87
2024/02/20 01:40:26;;;;;;;7.50;4.40;;;;;;;6.66;97.13;99503.22;5014802;28;20508;-87
2024/02/20 01:42:59;;;;;;;6.68;3.63;;;;;;;6.55;96.62;99503.84;5027788;28;20092;-87
2024/02/20 01:45:27;;;;;;;7.07;3.95;;;;;;;6.72;97.17;99512.97;5029280;28;20961;-85
2024/02/20 01:47:54;;;;;;;8.85;3.35;;;;;;;6.72;96.16;99528.91;5012152;28;20033;-87
2024/02/20 01:50:19;;;;;;;4.07;2.58;;;;;;;6.69;96.55;99519.50;5027944;28;20488;-87
2024/02/20 01:52:46;;;;;;;3.28;2.90;;;;;;;6.73;97.38;99531.34;5010275;28;20038;-87
2024/02/20 01:55:12;;;;;;;3.63;2.85;;;;;;;6.52;97.27;99501.59;5024522;28;20029;-87
2024/02/20 01:57:39;;;;;;;6.63;3.30;;;;;;;6.63;97.57;99530.97;5011821;28;21593;-86
2024/02/20 02:00:06;;;;;;;4.05;3.35;;;;;;;6.81;96.95;99525.00;5030272;28;20029;-87
2024/02/20 02:02:32;;;;;;;7.53;3.20;;;;;;;6.54;96.52;99465.06;5011770;28;20030;-87
2024/02/20 02:04:57;;;;;;;5.03;3.55;;;;;;;6.80;96.36;99531.31;5027996;28;20052;-87
2024/02/20 02:07:23;;;;;;;6.22;2.95;;;;;;;6.63;95.97;99530.13;5032245;28;20033;-87
2024/02/20 02:09:48;;;;;;;6.47;3.88;;;;;;;6.66;96.12;99514.59;5029025;28;20432;-86
2024/02/20 02:12:14;;;;;;;7.50;3.92;;;;;;;6.89;96.12;99535.38;5029731;28;20064;-87
2024/02/20 02:14:45;;;;;;;8.27;3.95;;;;;;;6.63;96.07;99522.19;5030699;28;20538;-86
2024/02/20 02:17:11;;;;;;;10.05;4.25;;;;;;;6.68;96.48;99527.69;5029141;28;20174;-86
2024/02/20 02:19:37;;;;;;;9.05;3.72;;;;;;;6.08;96.39;99441.28;5030493;28;20030;-86
2024/02/20 02:22:03;;;;;;;9.50;3.30;;;;;;;6.51;97.53;99516.69;5012863;28;20493;-86
2024/02/20 02:24:28;;;;;;;14.02;3.92;;;;;;;6.13;96.52;99452.09;5028438;28;20124;-87
2024/02/20 02:26:54;;;;;;;6.05;2.88;;;;;;;6.48;97.06;99505.69;5026636;28;20436;-86
2024/02/20 02:29:19;;;;;;;8.27;2.80;;;;;;;6.64;96.04;99542.38;5015214;28;20121;-87
2024/02/20 02:31:45;;;;;;;10.77;3.53;;;;;;;6.36;96.31;99497.53;5016197;28;20076;-87
2024/02/20 02:34:11;;;;;;;8.02;2.55;;;;;;;6.60;96.37;99535.84;5017220;28;20042;-86
2024/02/20 02:36:36;;;;;;;7.40;3.17;;;;;;;6.59;95.80;99545.66;5034842;28;20044;-86
2024/02/20 02:39:02;;;;;;;8.07;2.90;;;;;;;6.51;96.45;99537.09;5033283;28;20033;-87
2024/02/20 02:41:29;;;;;;;5.38;3.17;;;;;;;6.44;96.27;99530.97;5036802;28;20118;-86
2024/02/20 02:43:54;;;;;;;9.73;3.15;;;;;;;6.56;95.87;99561.97;5016161;28;20639;-87
2024/02/20 02:46:20;;;;;;;10.15;3.63;;;;;;;6.50;96.32;99530.97;5032629;28;20042;-86
2024/02/20 02:48:48;;;;;;;10.05;3.42;;;;;;;6.61;96.60;99566.66;5031648;28;20038;-86
2024/02/20 02:51:14;;;;;;;6.07;3.33;;;;;;;6.43;96.73;99551.38;5013756;28;20036;-86
2024/02/20 02:53:40;;;;;;;8.88;2.83;;;;;;;6.56;95.98;99577.88;5027360;28;20037;-86
2024/02/20 02:56:09;;;;;;;7.60;3.05;;;;;;;6.54;96.09;99574.63;4983363;28;20412;-87
2024/02/20 02:58:35;;;;;;;10.10;3.85;;;;;;;6.60;95.47;99579.09;5028094;28;20489;-86
2024/02/20 03:01:00;;;;;;;6.80;3.28;;;;;;;6.22;96.23;99529.53;5026456;28;20045;-86
2024/02/20 03:03:26;;;;;;;9.15;3.10;;;;;;;6.43;96.93;99579.72;5015409;28;20035;-87
2024/02/20 03:05:52;;;;;;;6.78;4.43;;;;;;;6.32;96.62;99556.44;5009743;28;20026;-87
2024/02/20 03:08:17;;;;;;;10.30;3.38;;;;;;;6.23;96.84;99549.72;5018281;28;20099;-86
2024/02/20 03:10:42;;;;;;;10.52;3.72;;;;;;;6.22;96.57;99567.47;5028699;28;20026;-86
2024/02/20 03:13:08;;;;;;;14.60;3.47;;;;;;;6.38;95.61;99568.88;5013797;28;20030;-87
2024/02/20 03:15:34;;;;;;;7.93;3.47;;;;;;;6.55;95.65;99583.41;5030088;28;20400;-86
2024/02/20 03:18:00;;;;;;;12.23;3.65;;;;;;;6.32;96.12;99585.63;5024811;28;20037;-87
2024/02/20 03:20:25;;;;;;;18.50;3.42;;;;;;;6.41;96.36;99576.44;5009742;28;20458;-87
2024/02/20 03:22:51;;;;;;;8.80;2.70;;;;;;;5.90;95.62;99500.16;5030844;28;20038;-86
2024/02/20 03:25:16;;;;;;;8.85;2.95;;;;;;;6.29;94.88;99578.09;5012849;28;20056;-87
2024/02/20 03:27:42;;;;;;;16.92;3.53;;;;;;;6.15;95.70;99555.22;5007815;28;20037;-87
2024/02/20 03:30:08;;;;;;;10.45;3.65;;;;;;;6.44;95.11;99605.22;5026375;28;21958;-86
2024/02/20 03:32:33;;;;;;;16.38;4.22;;;;;;;6.13;96.41;99578.47;5015343;28;20045;-87
2024/02/20 03:34:59;;;;;;;11.63;3.53;;;;;;;6.51;95.48;99606.84;5030319;28;20029;-86
2024/02/20 03:37:25;;;;;;;10.68;4.80;;;;;;;6.46;95.14;99611.13;5017194;28;20029;-87
2024/02/20 03:39:50;;;;;;;9.82;3.38;;;;;;;6.23;95.23;99568.28;5035733;28;20026;-86
2024/02/20 03:42:17;;;;;;;10.48;4.00;;;;;;;6.58;94.88;99614.78;5025119;28;20492;-86
2024/02/20 03:44:43;;;;;;;11.02;4.13;;;;;;;6.41;94.96;99609.09;5012649;28;20111;-87
2024/02/20 03:47:08;;;;;;;21.58;3.45;;;;;;;6.41;95.20;99629.47;5026484;28;20064;-86
2024/02/20 03:49:33;;;;;;;10.68;2.90;;;;;;;6.46;94.58;99619.91;5009849;28;20037;-86
2024/02/20 03:51:59;;;;;;;8.25;2.97;;;;;;;6.45;94.73;99620.09;5029737;28;20113;-87
2024/02/20 03:54:25;;;;;;;10.20;5.13;;;;;;;6.39;94.82;99613.78;5016414;28;20466;-86
2024/02/20 03:56:50;;;;;;;9.82;3.55;;;;;;;6.50;94.77;99636.22;4995669;28;20107;-85
2024/02/20 03:59:16;;;;;;;16.63;3.42;;;;;;;6.14;94.62;99577.47;5024960;28;22328;-87
2024/02/20 04:01:42;;;;;;;16.40;3.92;;;;;;;6.54;94.23;99635.59;5026594;28;20041;-87
2024/02/20 04:04:09;;;;;;;9.15;3.90;;;;;;;6.42;94.48;99631.91;5026819;28;20036;-87
2024/02/20 04:06:34;;;;;;;14.40;4.35;;;;;;;5.99;94.74;99567.03;5027803;28;20041;-87
2024/02/20 04:09:03;;;;;;;15.45;3.90;;;;;;;6.52;93.97;99637.66;5025491;28;20026;-86
2024/02/20 04:11:32;;;;;;;18.67;5.10;;;;;;;6.24;94.61;99613.16;5029602;28;20119;-86
2024/02/20 04:13:58;;;;;;;13.50;4.85;;;;;;;6.16;93.77;99596.63;5029668;28;20036;-86
2024/02/20 04:16:23;;;;;;;13.95;3.85;;;;;;;6.40;94.95;99647.22;5029737;28;20025;-87
2024/02/20 04:18:48;;;;;;;15.23;4.13;;;;;;;6.48;94.48;99639.09;5027980;28;20038;-86
2024/02/20 04:21:14;;;;;;;18.55;4.25;;;;;;;6.55;93.36;99650.50;5014232;28;20390;-86
2024/02/20 04:23:39;;;;;;;16.55;4.15;;;;;;;6.56;93.29;99657.44;5026905;28;20605;-86
2024/02/20 04:26:05;;;;;;;16.85;4.22;;;;;;;6.41;94.49;99656.00;5029318;28;20052;-86
2024/02/20 04:28:35;;;;;;;23.60;7.65;;;;;;;5.92;94.39;99569.66;5032434;28;20033;-87
2024/02/20 04:31:01;;;;;;;19.98;4.65;;;;;;;6.37;95.05;99652.13;5012201;28;20616;-86
2024/02/20 04:33:26;;;;;;;17.48;4.80;;;;;;;6.13;94.20;99624.34;5027761;28;20041;-86
2024/02/20 04:35:52;;;;;;;21.15;5.50;;;;;;;6.33;93.95;99643.75;4998422;28;20030;-87
2024/02/20 04:38:17;;;;;;;15.35;4.35;;;;;;;5.73;94.34;99588.13;5009159;28;20038;-87
2024/02/20 04:40:43;;;;;;;15.98;3.72;;;;;;;6.27;94.80;99675.56;5027938;28;20025;-87
2024/02/20 04:43:08;;;;;;;17.08;4.38;;;;;;;6.14;94.71;99647.16;5029946;28;20159;-86
2024/02/20 04:45:33;;;;;;;20.33;4.60;;;;;;;6.29;94.48;99671.66;5010058;28;20040;-87
2024/02/20 04:47:59;;;;;;;10.30;3.63;;;;;;;5.99;94.11;99673.84;5027743;28;20051;-87
2024/02/20 04:50:24;;;;;;;13.68;3.92;;;;;;;6.24;94.75;99675.94;5029085;28;20036;-86
2024/02/20 04:52:49;;;;;;;17.55;4.20;;;;;;;5.98;94.93;99653.63;5033176;28;20029;-87
2024/02/20 04:55:15;;;;;;;25.80;6.03;;;;;;;6.15;95.39;99677.13;4995684;28;20033;-87
2024/02/20 04:57:40;;;;;;;10.52;3.80;;;;;;;6.09;95.43;99651.44;5032650;28;20044;-86
2024/02/20 05:00:10;;;;;;;18.50;4.55;;;;;;;6.26;95.67;99681.84;5029085;28;20033;-86
2024/02/20 05:02:37;;;;;;;14.52;3.42;;;;;;;5.81;94.45;99599.34;5030788;28;20033;-86
2024/02/20 05:05:03;;;;;;;29.20;5.32;;;;;;;6.08;94.85;99655.91;5007852;28;20038;-87
2024/02/20 05:07:30;;;;;;;17.17;4.75;;;;;;;6.08;95.18;99687.72;5032197;28;20436;-87
2024/02/20 05:09:55;;;;;;;17.83;4.28;;;;;;;5.89;94.67;99669.91;5031168;28;20056;-87
2024/02/20 05:12:21;;;;;;;25.38;6.13;;;;;;;6.22;94.53;99688.59;5036379;28;20061;-87
2024/02/20 05:14:47;;;;;;;29.75;8.45;;;;;;;6.14;94.15;99694.06;5029505;28;20038;-87
2024/02/20 05:17:13;;;;;;;34.78;7.32;;;;;;;5.56;94.58;99615.97;5028497;28;20068;-86
2024/02/20 05:19:39;;;;;;;15.95;4.60;;;;;;;6.19;94.47;99688.97;5026410;28;20105;-86
2024/02/20 05:22:04;;;;;;;19.85;5.43;;;;;;;6.02;94.13;99670.78;5025348;28;20115;-88
2024/02/20 05:24:30;;;;;;;20.00;5.75;;;;;;;6.04;94.60;99682.00;5010833;28;20116;-86
2024/02/20 05:26:55;;;;;;;20.58;4.30;;;;;;;6.15;94.15;99685.09;5027811;28;20037;-87
2024/02/20 05:29:21;;;;;;;18.25;5.55;;;;;;;5.91;93.99;99679.31;5007280;28;20025;-86
2024/02/20 05:31:47;;;;;;;23.30;6.15;;;;;;;6.00;93.71;99696.69;5001165;28;20500;-87
2024/02/20 05:34:12;;;;;;;26.85;5.53;;;;;;;5.79;94.09;99674.72;5028868;28;20030;-87
2024/02/20 05:36:38;;;;;;;28.63;5.30;;;;;;;5.74;94.19;99667.41;5008524;28;20037;-86
2024/02/20 05:39:05;;;;;;;26.10;5.97;;;;;;;5.89;93.50;99712.31;5012790;28;20552;-86
2024/02/20 05:41:31;;;;;;;30.02;8.30;;;;;;;5.96;92.95;99695.41;5013419;28;20401;-86
2024/02/20 05:43:58;;;;;;;33.78;5.50;;;;;;;5.90;92.27;99714.75;4989708;28;20048;-87
2024/02/20 05:46:27;;;;;;;27.42;6.32;;;;;;;5.92;92.96;99696.00;5013434;28;20479;-86
2024/02/20 05:48:53;;;;;;;17.88;4.97;;;;;;;5.98;92.46;99722.53;5023086;28;20022;-87
2024/02/20 05:51:19;;;;;;;24.02;6.05;;;;;;;5.67;91.95;99692.19;5018403;28;20044;-86
2024/02/20 05:53:44;;;;;;;31.77;5.93;;;;;;;5.23;92.64;99629.84;4995487;28;20045;-86
2024/02/20 05:56:09;;;;;;;28.63;6.22;;;;;;;5.64;91.80;99711.13;5025225;28;20037;-85
2024/02/20 05:58:36;;;;;;;27.25;6.15;;;;;;;5.75;92.11;99710.56;5028993;28;20044;-86
2024/02/20 06:01:01;;;;;;;29.00;6.30;;;;;;;5.71;92.18;99704.84;5031193;28;20049;-85
2024/02/20 06:03:27;;;;;;;28.70;6.68;;;;;;;5.81;92.27;99723.03;5028306;28;20116;-86
2024/02/20 06:05:52;;;;;;;29.75;7.32;;;;;;;5.80;90.94;99713.44;5028199;28;20029;-86
2024/02/20 06:08:18;;;;;;;30.95;7.22;;;;;;;5.92;91.79;99738.38;5016674;28;20052;-86
2024/02/20 06:10:43;;;;;;;33.47;6.20;;;;;;;5.91;91.72;99726.19;5016308;28;20470;-87
2024/02/20 06:13:09;;;;;;;34.38;8.10;;;;;;;5.98;91.42;99738.41;5039928;28;20041;-86
2024/02/20 06:15:35;;;;;;;34.20;7.57;;;;;;;5.86;91.38;99737.34;5018661;28;20500;-86
2024/02/20 06:18:00;;;;;;;25.23;6.50;;;;;;;5.96;91.91;99760.84;5016279;28;20104;-86
2024/02/20 06:20:26;;;;;;;26.00;5.55;;;;;;;5.43;90.95;99674.97;5012281;28;20041;-86
2024/02/20 06:22:51;;;;;;;24.05;5.57;;;;;;;5.97;91.22;99751.88;5038363;28;20033;-86
2024/02/20 06:25:16;;;;;;;27.52;6.38;;;;;;;5.86;92.02;99760.38;5015448;28;20041;-86
2024/02/20 06:27:45;;;;;;;30.55;7.70;;;;;;;5.67;91.69;99711.56;5032490;28;20033;-86
2024/02/20 06:30:12;;;;;;;37.28;6.95;;;;;;;5.72;91.75;99759.44;5017626;28;20029;-86
2024/02/20 06:32:39;;;;;;;34.10;6.93;;;;;;;5.61;91.90;99738.84;5021398;28;20079;-86
2024/02/20 06:35:05;;;;;;;32.45;6.35;;;;;;;5.77;91.83;99759.69;5032624;28;20029;-85
2024/02/20 06:37:31;;;;;;;31.35;5.63;;;;;;;5.66;91.68;99741.69;5030760;28;20063;-86
2024/02/20 06:39:56;;;;;;;28.95;6.03;;;;;;;5.93;91.85;99770.00;5035339;28;20081;-86
2024/02/20 06:42:22;;;;;;;24.67;6.13;;;;;;;5.75;91.88;99777.59;5019316;28;20040;-86
2024/02/20 06:44:47;;;;;;;34.50;6.22;;;;;;;5.76;92.17;99754.59;5017951;28;20120;-86
2024/02/20 06:47:14;;;;;;;26.75;5.82;;;;;;;5.62;91.37;99721.91;5032217;28;20127;-86
2024/02/20 06:49:40;;;;;;;36.40;6.68;;;;;;;6.08;91.65;99788.41;5036493;28;20033;-86
2024/02/20 06:52:06;;;;;;;30.10;7.50;;;;;;;5.78;92.41;99782.53;5037590;28;20041;-86
2024/02/20 06:54:32;;;;;;;25.73;7.75;;;;;;;5.68;92.71;99797.94;5036658;28;20363;-85
2024/02/20 06:56:57;;;;;;;18.20;5.82;;;;;;;5.92;91.31;99794.03;5035696;28;20101;-86
2024/02/20 06:59:23;;;;;;;28.83;8.50;;;;;;;5.22;92.28;99683.78;5039058;28;20030;-86
2024/02/20 07:01:48;;;;;;;20.25;6.03;;;;;;;5.92;91.50;99778.13;5042282;28;20444;-86
2024/02/20 07:04:14;;;;;;;29.60;6.07;;;;;;;5.47;91.89;99752.97;5035967;28;20086;-86
2024/02/20 07:06:39;;;;;;;23.58;5.95;;;;;;;5.92;91.00;99799.31;5021657;28;20495;-86
2024/02/20 07:09:05;;;;;;;27.10;6.88;;;;;;;6.04;91.08;99808.38;5037871;28;20025;-86
2024/02/20 07:11:30;;;;;;;29.92;6.10;;;;;;;5.96;91.10;99790.78;5028906;28;20524;-86
2024/02/20 07:13:56;;;;;;;30.40;6.68;;;;;;;5.93;91.42;99801.81;5039664;28;20025;-86
2024/02/20 07:16:21;;;;;;;23.60;6.10;;;;;;;5.73;91.60;99794.69;5039741;28;20034;-86
2024/02/20 07:18:46;;;;;;;31.05;6.25;;;;;;;5.96;92.03;99808.53;5040876;28;20051;-86
2024/02/20 07:21:12;;;;;;;37.38;6.97;;;;;;;5.82;91.90;99810.25;5036693;28;20149;-86
2024/02/20 07:23:37;;;;;;;37.67;7.03;;;;;;;5.83;91.57;99803.13;5020824;28;20037;-86
2024/02/20 07:26:02;;;;;;;25.92;5.72;;;;;;;5.94;91.23;99810.56;5035562;28;20029;-85
2024/02/20 07:28:28;;;;;;;20.55;6.47;;;;;;;5.63;91.83;99795.06;5037423;28;20040;-86
2024/02/20 07:30:53;;;;;;;25.70;5.63;;;;;;;5.92;91.73;99816.03;5040165;28;20021;-87
2024/02/20 07:33:19;;;;;;;45.10;6.95;;;;;;;5.94;90.57;99806.06;5037205;28;20038;-86
2024/02/20 07:35:44;;;;;;;27.92;6.55;;;;;;;5.40;90.92;99753.94;5038183;28;20419;-85
2024/02/20 07:38:09;;;;;;;31.15;6.00;;;;;;;5.73;91.17;99819.38;5037327;28;20515;-86
2024/02/20 07:40:35;;;;;;;30.83;6.10;;;;;;;5.88;91.99;99827.22;5033398;28;20491;-85
2024/02/20 07:43:01;;;;;;;30.60;6.55;;;;;;;5.78;92.09;99829.38;5030717;28;20527;-86
2024/02/20 07:45:27;;;;;;;30.67;6.35;;;;;;;5.65;91.49;99777.16;5035050;28;20500;-86
2024/02/20 07:47:53;;;;;;;30.90;6.50;;;;;;;5.80;91.16;99814.94;5040261;28;20037;-86
2024/02/20 07:50:18;;;;;;;27.48;6.43;;;;;;;5.68;91.14;99805.06;5031501;28;20110;-85
2024/02/20 07:52:45;;;;;;;31.05;6.80;;;;;;;6.01;91.20;99828.13;5019040;28;20045;-86
2024/02/20 07:55:11;;;;;;;33.30;4.68;;;;;;;5.96;90.49;99825.25;5018306;28;20036;-85
2024/02/20 07:57:37;;;;;;;26.95;5.90;;;;;;;5.92;90.92;99834.59;5032888;28;20053;-86
2024/02/20 08:00:05;;;;;;;34.58;6.22;;;;;;;5.64;91.60;99780.78;5031636;28;20416;-85
2024/02/20 08:02:31;;;;;;;33.58;6.13;;;;;;;5.82;92.10;99812.09;5027194;28;20406;-85
2024/02/20 08:04:56;;;;;;;22.45;7.30;;;;;;;5.92;91.48;99825.81;5033953;28;20087;-86
2024/02/20 08:07:22;;;;;;;35.30;6.38;;;;;;;5.64;92.33;99787.91;5021176;28;20028;-86
2024/02/20 08:09:48;;;;;;;40.00;8.15;;;;;;;5.90;91.86;99833.16;5040952;28;20421;-86
2024/02/20 08:12:14;;;;;;;22.80;5.60;;;;;;;5.68;91.80;99799.78;5028914;28;20037;-85
2024/02/20 08:14:40;;;;;;;30.20;6.22;;;;;;;5.75;91.79;99801.44;5034852;28;20112;-86
2024/02/20 08:17:06;;;;;;;23.88;6.57;;;;;;;5.91;91.69;99811.78;5031848;28;20044;-86
2024/02/20 08:19:31;;;;;;;38.55;6.32;;;;;;;5.85;91.76;99817.81;5032796;28;20014;-86
2024/02/20 08:21:57;;;;;;;25.08;5.72;;;;;;;5.74;92.05;99783.09;5029530;28;20045;-86
2024/02/20 08:24:22;;;;;;;19.88;5.03;;;;;;;6.02;91.55;99805.09;5037309;28;20453;-86
2024/02/20 08:26:49;;;;;;;32.58;6.60;;;;;;;6.07;91.53;99810.66;5018290;28;20508;-86
2024/02/20 08:29:14;;;;;;;26.98;6.18;;;;;;;6.09;91.49;99807.78;4998286;28;20025;-86
2024/02/20 08:31:42;;;;;;;36.50;7.75;;;;;;;6.02;91.82;99819.19;5014555;28;20037;-86
2024/02/20 08:34:09;;;;;;;39.35;7.63;;;;;;;6.10;91.77;99833.25;5033795;28;20041;-86
2024/02/20 08:36:34;;;;;;;31.80;6.57;;;;;;;5.99;92.50;99814.25;4999565;28;20030;-85
2024/02/20 08:38:59;;;;;;;29.60;7.75;;;;;;;6.16;91.01;99830.66;5030120;28;20056;-85
2024/02/20 08:41:25;;;;;;;28.45;6.82;;;;;;;6.33;91.67;99836.47;5032994;28;20072;-85
2024/02/20 08:43:51;;;;;;;42.10;7.85;;;;;;;6.33;90.54;99839.13;5015316;28;20041;-86
2024/02/20 08:46:17;;;;;;;31.33;7.88;;;;;;;6.12;91.96;99836.53;5033120;28;20037;-85
2024/02/20 08:48:42;;;;;;;38.63;8.63;;;;;;;6.17;91.06;99839.44;5012372;28;20041;-86
2024/02/20 08:51:08;;;;;;;40.22;7.50;;;;;;;6.17;91.87;99829.66;5014661;28;20033;-87
2024/02/20 08:53:33;;;;;;;34.55;7.75;;;;;;;6.06;91.53;99822.25;5029402;28;20045;-86
2024/02/20 08:55:59;;;;;;;36.65;7.78;;;;;;;6.19;90.76;99829.44;5013424;28;20042;-85
2024/02/20 08:58:24;;;;;;;22.35;6.88;;;;;;;6.13;91.47;99833.72;5030472;28;20052;-86
2024/02/20 09:00:50;;;;;;;37.50;8.95;;;;;;;6.42;91.13;99845.91;5032695;28;20036;-86
2024/02/20 09:03:16;;;;;;;36.88;8.52;;;;;;;6.16;91.63;99835.16;5027217;28;20041;-85
2024/02/20 09:05:41;;;;;;;35.60;8.98;;;;;;;6.11;91.84;99830.44;5014497;28;20068;-85
2024/02/20 09:08:07;;;;;;;34.75;8.05;;;;;;;6.29;91.12;99851.13;5019581;28;20977;-85
2024/02/20 09:10:32;;;;;;;43.20;8.38;;;;;;;6.33;91.27;99852.38;5034882;28;20493;-86
2024/02/20 09:13:01;;;;;;;30.15;8.15;;;;;;;6.26;90.73;99830.31;5030468;28;20963;-86
2024/02/20 09:15:26;;;;;;;30.30;7.95;;;;;;;6.32;90.97;99851.53;5029931;28;20056;-86
2024/02/20 09:17:52;;;;;;;33.05;8.95;;;;;;;6.20;90.95;99828.44;5029613;28;20064;-86
2024/02/20 09:20:17;;;;;;;32.50;7.53;;;;;;;6.39;90.59;99838.31;5029766;28;20029;-86
2024/02/20 09:22:42;;;;;;;38.63;9.52;;;;;;;6.44;90.59;99843.88;5027609;28;20060;-85
2024/02/20 09:25:08;;;;;;;29.25;8.10;;;;;;;6.33;90.96;99849.72;5030673;28;20060;-86
2024/02/20 09:27:34;;;;;;;24.27;7.72;;;;;;;6.43;91.52;99851.00;5033960;28;20087;-86
2024/02/20 09:30:00;;;;;;;40.97;8.35;;;;;;;6.33;91.25;99850.53;5035803;28;20045;-86
2024/02/20 09:32:26;;;;;;;29.65;7.78;;;;;;;6.47;91.33;99844.28;5037566;28;20044;-85
2024/02/20 09:34:52;;;;;;;31.50;7.65;;;;;;;6.50;89.91;99851.03;5035562;28;20029;-86
2024/02/20 09:37:18;;;;;;;23.52;7.65;;;;;;;6.53;91.05;99856.72;5031223;28;20068;-86
2024/02/20 09:39:43;;;;;;;22.88;6.63;;;;;;;6.52;91.00;99852.47;5035121;28;20033;-86
2024/02/20 09:42:21;;;;;;;36.30;7.35;;;;;;;6.47;90.54;99823.06;5015558;28;20033;-86
2024/02/20 09:44:47;;;;;;;35.67;7.82;;;;;;;5.93;91.02;99756.75;5038054;28;20039;-86
2024/02/20 09:47:16;;;;;;;24.88;7.05;;;;;;;6.74;90.13;99848.69;5028384;28;20095;-87
2024/02/20 09:49:42;;;;;;;32.80;6.80;;;;;;;6.66;89.95;99837.44;5033083;28;20026;-87
2024/02/20 09:52:08;;;;;;;39.65;9.18;;;;;;;6.61;89.17;99802.72;4997917;28;20750;-84
2024/02/20 09:54:34;;;;;;;38.15;10.15;;;;;;;6.65;89.96;99817.22;5025849;28;20567;-87
2024/02/20 09:57:01;;;;;;;37.33;7.85;;;;;;;6.67;89.51;99813.34;5039370;28;20055;-87
2024/02/20 09:59:26;;;;;;;24.65;7.25;;;;;;;6.74;89.70;99846.03;5033828;28;20025;-84
2024/02/20 10:01:55;;;;;;;33.45;8.38;;;;;;;6.77;90.52;99844.81;5017092;28;20048;-87
2024/02/20 10:04:22;;;;;;;28.17;7.72;;;;;;;6.63;89.73;99812.09;5010851;28;20030;-86
2024/02/20 10:06:47;;;;;;;32.97;8.82;;;;;;;6.71;90.54;99834.97;5032608;28;20040;-84
2024/02/20 10:09:14;;;;;;;24.90;7.50;;;;;;;6.62;90.74;99828.19;5000598;28;20033;-87
2024/02/20 10:11:40;;;;;;;31.77;7.90;;;;;;;6.63;89.31;99813.94;5020833;28;20142;-84
2024/02/20 10:14:06;;;;;;;35.60;7.40;;;;;;;6.52;90.01;99811.84;5003554;28;20099;-87
2024/02/20 10:16:33;;;;;;;27.75;8.55;;;;;;;6.77;89.63;99836.84;5031998;28;20038;-85
2024/02/20 10:19:00;;;;;;;27.17;8.10;;;;;;;6.77;90.22;99847.47;5018756;28;20025;-87
2024/02/20 10:21:26;;;;;;;28.05;7.65;;;;;;;6.47;90.39;99807.16;5032165;28;20038;-87
2024/02/20 10:24:06;;;;;;;25.20;7.63;;;;;;;6.85;89.90;99852.59;5030306;28;20044;-86
2024/02/20 10:26:37;;;;;;;33.95;9.82;;;;;;;6.90;89.45;99846.69;5032733;28;20082;-86
2024/02/20 10:29:03;;;;;;;15.77;6.80;;;;;;;6.77;89.59;99826.25;5014962;28;20420;-86
2024/02/20 10:31:31;;;;;;;29.75;7.35;;;;;;;6.93;90.13;99841.78;5023853;28;20030;-86
2024/02/20 10:33:57;;;;;;;28.88;6.70;;;;;;;6.60;88.74;99770.06;5021267;28;20392;-85
2024/02/20 10:36:22;;;;;;;27.48;7.68;;;;;;;7.12;88.35;99848.94;5028019;28;20048;-86
2024/02/20 10:38:50;;;;;;;27.35;9.50;;;;;;;6.90;88.55;99814.84;5011947;28;20029;-85
2024/02/20 10:41:16;;;;;;;23.85;7.18;;;;;;;7.29;88.10;99849.41;5021057;28;20122;-86
2024/02/20 10:43:48;;;;;;;27.25;7.43;;;;;;;7.08;87.78;99805.25;5030760;28;20054;-85
2024/02/20 10:46:15;;;;;;;20.58;8.07;;;;;;;7.28;87.16;99843.28;5013004;28;20021;-86
2024/02/20 10:48:46;;;;;;;22.58;6.30;;;;;;;7.23;87.86;99845.72;5028671;28;20041;-86
2024/02/20 10:51:13;;;;;;;42.35;7.82;;;;;;;6.94;87.81;99793.00;5035513;28;20029;-86
2024/02/20 10:53:39;;;;;;;24.00;7.90;;;;;;;7.34;88.33;99847.75;5027563;28;20088;-86
2024/02/20 10:56:09;;;;;;;27.95;7.10;;;;;;;7.54;86.40;99839.81;5036747;28;20033;-86
2024/02/20 10:58:39;;;;;;;34.03;8.23;;;;;;;7.49;86.61;99831.66;5030777;28;20049;-86
2024/02/20 11:01:09;;;;;;;32.72;8.98;;;;;;;7.25;88.03;99833.03;5010190;28;20029;-86
2024/02/20 11:03:35;;;;;;;29.95;7.57;;;;;;;7.35;88.18;99827.34;5029773;28;20029;-85
2024/02/20 11:06:00;;;;;;;26.08;7.78;;;;;;;7.34;87.03;99812.41;5048272;28;20109;-85
2024/02/20 11:08:29;;;;;;;26.77;7.45;;;;;;;7.40;86.80;99815.06;5029509;28;20133;-86
2024/02/20 11:10:55;;;;;;;25.35;7.45;;;;;;;7.45;87.27;99807.31;5019145;28;20107;-86
2024/02/20 11:13:24;;;;;;;28.33;7.75;;;;;;;7.52;86.68;99817.94;5024255;28;20058;-85
2024/02/20 11:15:51;;;;;;;28.38;6.85;;;;;;;7.51;86.42;99797.72;5032034;28;20068;-85
2024/02/20 11:18:18;;;;;;;20.90;7.00;;;;;;;7.61;86.94;99813.25;5016209;28;20030;-85
2024/02/20 11:20:44;;;;;;;25.85;7.45;;;;;;;6.98;86.62;99708.47;5034104;28;20373;-85
2024/02/20 11:23:09;;;;;;;20.55;6.55;;;;;;;7.54;86.02;99818.56;5019437;28;20035;-85
2024/02/20 11:25:37;;;;;;;27.95;6.85;;;;;;;7.39;86.95;99780.75;5017660;28;20120;-85
2024/02/20 11:28:15;;;;;;;25.20;7.93;;;;;;;7.61;87.14;99805.25;5030393;28;20064;-85